Time;durP1;ratioP1;P1;durP2;ratioP2;P2;SDS_P1;SDS_P2;PMS_P1;PMS_P2;Temp;Humidity;BMP_temperature;BMP_pressure;BME280_temperature;BME280_humidity;BME280_pressure;Samples;Min_cycle;Max_cycle;Signal;HPM_P1;HPM_P2
2021/07/24 00:01:43;;;;;;;14.97;13.40;;;17.00;99.90;;;;;;5062516;28;20684;-78
2021/07/24 00:04:08;;;;;;;15.00;12.83;;;16.60;99.90;;;;;;5064419;28;20188;-78
2021/07/24 00:06:34;;;;;;;14.70;12.80;;;16.70;99.90;;;;;;5065971;28;20577;-77
2021/07/24 00:09:04;;;;;;;14.80;13.40;;;17.00;99.90;;;;;;5067597;28;20178;-77
2021/07/24 00:11:30;;;;;;;16.80;13.67;;;16.90;99.90;;;;;;5065988;28;20191;-77
2021/07/24 00:13:56;;;;;;;15.00;13.40;;;16.50;99.90;;;;;;5062614;28;20778;-77
2021/07/24 00:16:21;;;;;;;14.23;12.53;;;16.50;99.90;;;;;;5062433;28;20418;-77
2021/07/24 00:18:47;;;;;;;15.97;14.00;;;16.80;99.90;;;;;;5062293;28;20281;-77
2021/07/24 00:21:12;;;;;;;15.23;12.67;;;16.60;99.90;;;;;;5067429;28;20594;-77
2021/07/24 00:23:37;;;;;;;15.10;13.00;;;16.70;99.90;;;;;;5065749;28;20204;-77
2021/07/24 00:26:03;;;;;;;16.20;13.23;;;16.90;99.90;;;;;;5065656;28;20222;-77
2021/07/24 00:28:29;;;;;;;13.53;12.33;;;17.00;99.90;;;;;;5064065;28;20758;-77
2021/07/24 00:30:54;;;;;;;15.80;13.20;;;16.60;99.90;;;;;;5062402;28;20205;-77
2021/07/24 00:33:20;;;;;;;14.70;13.20;;;16.70;99.90;;;;;;5062067;28;20227;-77
2021/07/24 00:35:46;;;;;;;14.97;13.07;;;16.60;99.90;;;;;;5065338;28;20244;-77
2021/07/24 00:38:11;;;;;;;14.77;13.37;;;16.30;99.90;;;;;;5067676;28;20421;-76
2021/07/24 00:40:48;;;;;;;15.33;13.80;;;16.40;99.90;;;;;;5065014;28;20246;-77
2021/07/24 00:43:14;;;;;;;14.40;13.00;;;16.20;99.90;;;;;;5061823;28;20222;-77
2021/07/24 00:45:48;;;;;;;14.70;12.97;;;16.40;99.90;;;;;;5061693;28;20416;-77
2021/07/24 00:48:21;;;;;;;13.57;12.17;;;16.50;99.90;;;;;;5061864;28;20416;-77
2021/07/24 00:50:53;;;;;;;14.53;12.80;;;16.20;99.90;;;;;;5061683;28;20537;-77
2021/07/24 00:53:23;;;;;;;14.77;12.90;;;16.20;99.90;;;;;;5066849;28;20849;-77
2021/07/24 00:55:52;;;;;;;14.63;13.13;;;16.30;99.90;;;;;;5065013;28;20435;-77
2021/07/24 00:58:25;;;;;;;15.30;12.40;;;16.40;99.90;;;;;;5047065;28;20510;-77
2021/07/24 01:00:51;;;;;;;14.13;12.73;;;16.30;99.90;;;;;;5061626;28;20428;-76
2021/07/24 01:03:17;;;;;;;14.27;12.87;;;16.30;99.90;;;;;;5061435;28;21045;-76
2021/07/24 01:05:44;;;;;;;15.40;13.70;;;16.30;99.90;;;;;;5063042;28;20185;-76
2021/07/24 01:08:09;;;;;;;14.17;12.77;;;16.40;99.90;;;;;;5066742;28;20233;-77
2021/07/24 01:10:35;;;;;;;15.53;13.97;;;16.40;99.90;;;;;;5066275;28;20420;-76
2021/07/24 01:13:01;;;;;;;14.17;12.67;;;16.40;99.90;;;;;;5062735;28;20190;-77
2021/07/24 01:15:27;;;;;;;14.80;13.10;;;16.20;99.90;;;;;;5063016;28;20930;-76
2021/07/24 01:17:52;;;;;;;15.10;13.60;;;16.20;99.90;;;;;;5061031;28;20423;-77
2021/07/24 01:20:19;;;;;;;14.30;12.80;;;16.20;99.90;;;;;;5061162;28;20178;-77
2021/07/24 01:22:44;;;;;;;14.53;12.80;;;16.30;99.90;;;;;;5061020;28;20265;-76
2021/07/24 01:25:10;;;;;;;15.30;13.70;;;16.20;99.90;;;;;;5061162;28;20452;-77
2021/07/24 01:27:43;;;;;;;14.60;13.10;;;16.20;99.90;;;;;;5064498;28;20659;-76
2021/07/24 01:30:12;;;;;;;13.67;12.37;;;16.20;99.90;;;;;;5066346;28;20424;-77
2021/07/24 01:32:38;;;;;;;14.83;13.30;;;16.00;99.90;;;;;;5065590;28;21078;-77
2021/07/24 01:35:05;;;;;;;14.63;13.13;;;16.20;99.90;;;;;;5059906;28;20566;-77
2021/07/24 01:37:31;;;;;;;14.40;13.00;;;16.10;99.90;;;;;;5062596;28;20471;-77
2021/07/24 01:39:56;;;;;;;15.57;14.00;;;16.00;99.90;;;;;;5060910;28;20456;-77
2021/07/24 01:42:22;;;;;;;15.03;13.50;;;16.10;99.90;;;;;;5065911;28;20220;-78
2021/07/24 01:44:47;;;;;;;16.03;14.10;;;16.10;99.90;;;;;;5064072;28;20675;-77
2021/07/24 01:47:13;;;;;;;14.47;13.03;;;15.90;99.90;;;;;;5064119;28;20583;-77
2021/07/24 01:52:48;;;;;;;16.33;13.53;;;16.00;99.90;;;;;;5060166;28;20205;-77
2021/07/24 01:55:31;;;;;;;14.70;13.20;;;15.90;99.90;;;;;;5060770;28;20424;-78
2021/07/24 01:57:58;;;;;;;14.07;12.57;;;16.10;99.90;;;;;;5060493;28;20426;-78
2021/07/24 02:00:24;;;;;;;15.97;14.10;;;16.20;99.90;;;;;;5062364;28;20463;-78
2021/07/24 02:02:53;;;;;;;14.23;12.93;;;16.10;99.90;;;;;;5060086;28;20492;-78
2021/07/24 02:05:33;;;;;;;15.13;13.60;;;16.20;99.90;;;;;;5060269;28;20269;-78
2021/07/24 02:08:02;;;;;;;15.27;13.77;;;16.20;99.90;;;;;;5058384;28;20508;-77
2021/07/24 02:10:27;;;;;;;18.20;13.20;;;16.20;99.90;;;;;;5062082;28;20411;-78
2021/07/24 02:12:53;;;;;;;15.47;13.90;;;16.30;99.90;;;;;;5060238;28;20863;-78
2021/07/24 02:15:18;;;;;;;14.50;13.07;;;16.20;99.90;;;;;;5060058;28;20594;-78
2021/07/24 02:17:44;;;;;;;15.50;13.90;;;16.40;99.90;;;;;;5059927;28;20270;-78
2021/07/24 02:20:11;;;;;;;15.10;13.60;;;16.30;99.90;;;;;;5063785;28;20186;-78
2021/07/24 02:22:36;;;;;;;15.43;13.93;;;16.30;99.90;;;;;;5063114;28;20206;-78
2021/07/24 02:25:02;;;;;;;15.20;13.60;;;16.60;99.90;;;;;;5065533;28;20482;-78
2021/07/24 02:27:28;;;;;;;15.30;13.57;;;16.40;99.90;;;;;;5061992;28;20186;-78
2021/07/24 02:29:53;;;;;;;15.13;13.53;;;16.50;99.90;;;;;;5060414;28;20371;-78
2021/07/24 02:32:19;;;;;;;16.10;14.50;;;16.70;99.90;;;;;;5059699;28;20253;-78
2021/07/24 02:34:44;;;;;;;13.53;12.23;;;16.50;99.90;;;;;;5059634;28;20265;-77
2021/07/24 02:37:10;;;;;;;15.50;14.00;;;16.40;99.90;;;;;;5060471;28;20265;-77
2021/07/24 02:39:36;;;;;;;14.80;13.30;;;16.40;99.90;;;;;;5061662;28;20640;-77
2021/07/24 02:42:01;;;;;;;14.47;12.93;;;16.70;99.90;;;;;;5059545;28;20206;-77
2021/07/24 02:44:27;;;;;;;14.87;13.27;;;16.60;99.90;;;;;;5061544;28;20185;-78
2021/07/24 02:46:52;;;;;;;14.67;13.07;;;16.80;99.90;;;;;;5061506;28;20625;-77
2021/07/24 02:49:18;;;;;;;13.93;12.60;;;16.80;99.90;;;;;;5064806;28;20184;-77
2021/07/24 02:51:43;;;;;;;14.83;12.73;;;16.50;99.90;;;;;;5063072;28;20280;-78
2021/07/24 02:54:09;;;;;;;15.37;13.47;;;16.90;99.90;;;;;;5061492;28;20194;-78
2021/07/24 02:56:34;;;;;;;14.60;13.10;;;16.70;99.90;;;;;;5061486;28;20549;-78
2021/07/24 02:59:00;;;;;;;15.17;13.67;;;16.80;99.90;;;;;;5057784;28;20190;-78
2021/07/24 03:01:25;;;;;;;16.70;13.87;;;16.40;99.90;;;;;;5061342;28;20178;-78
2021/07/24 03:03:51;;;;;;;15.83;12.93;;;16.60;99.90;;;;;;5061219;28;20252;-78
2021/07/24 03:06:16;;;;;;;14.00;12.60;;;16.70;99.90;;;;;;5064743;28;20284;-78
2021/07/24 03:08:42;;;;;;;14.37;12.87;;;16.90;99.90;;;;;;5062908;28;20185;-78
2021/07/24 03:11:07;;;;;;;14.30;12.77;;;16.50;99.90;;;;;;5059647;28;20186;-79
2021/07/24 03:13:33;;;;;;;13.33;12.03;;;16.50;99.90;;;;;;5061365;28;20175;-78
2021/07/24 03:15:58;;;;;;;14.60;13.03;;;16.70;99.90;;;;;;5059604;28;20182;-79
2021/07/24 03:18:23;;;;;;;14.40;13.00;;;16.80;99.90;;;;;;5059543;28;20187;-78
2021/07/24 03:20:49;;;;;;;14.47;13.00;;;16.50;99.90;;;;;;5062827;28;20193;-78
2021/07/24 03:23:14;;;;;;;13.70;12.40;;;16.70;99.90;;;;;;5064538;28;20205;-78
2021/07/24 03:25:42;;;;;;;13.00;11.73;;;16.40;99.90;;;;;;5062777;28;20178;-78
2021/07/24 03:28:08;;;;;;;15.23;13.67;;;16.70;99.90;;;;;;5041560;28;20206;-78
2021/07/24 03:30:33;;;;;;;12.73;11.40;;;16.60;99.90;;;;;;5061137;28;20440;-78
2021/07/24 03:32:59;;;;;;;14.07;12.77;;;16.80;99.90;;;;;;5059055;28;20953;-78
2021/07/24 03:35:24;;;;;;;15.63;14.03;;;16.70;99.90;;;;;;5059263;28;20232;-78
2021/07/24 03:37:50;;;;;;;13.53;12.13;;;16.70;99.90;;;;;;5062699;28;20178;-78
2021/07/24 03:40:15;;;;;;;15.53;13.93;;;16.80;99.90;;;;;;5064804;28;20177;-79
2021/07/24 03:42:41;;;;;;;15.53;14.00;;;16.90;99.90;;;;;;5062391;28;20285;-78
2021/07/24 03:45:07;;;;;;;13.47;12.10;;;16.80;99.90;;;;;;5059288;28;20264;-79
2021/07/24 03:47:33;;;;;;;14.20;12.90;;;16.80;99.90;;;;;;5060920;28;20456;-79
2021/07/24 03:49:58;;;;;;;14.00;12.60;;;16.80;99.90;;;;;;5060715;28;20271;-79
2021/07/24 03:52:24;;;;;;;14.20;12.73;;;16.70;99.90;;;;;;5064499;28;20190;-79
2021/07/24 03:54:49;;;;;;;13.70;12.30;;;17.00;99.90;;;;;;5062409;28;20186;-78
2021/07/24 03:57:15;;;;;;;14.93;13.43;;;16.80;99.90;;;;;;5060947;28;20555;-79
2021/07/24 03:59:40;;;;;;;15.40;13.90;;;16.60;99.90;;;;;;5058767;28;20208;-78
2021/07/24 04:02:10;;;;;;;15.67;13.50;;;16.70;99.90;;;;;;5060666;28;20662;-78
2021/07/24 04:04:36;;;;;;;14.33;12.83;;;16.80;99.90;;;;;;5062015;28;20178;-79
2021/07/24 04:07:01;;;;;;;14.10;12.60;;;16.60;99.90;;;;;;5064403;28;20420;-78
2021/07/24 04:09:27;;;;;;;15.80;14.30;;;16.90;99.90;;;;;;5064199;28;20183;-78
2021/07/24 04:11:52;;;;;;;15.30;13.23;;;16.90;99.90;;;;;;5059042;28;20573;-78
2021/07/24 04:14:18;;;;;;;16.00;14.50;;;16.80;99.90;;;;;;5059931;28;20190;-78
2021/07/24 04:16:44;;;;;;;14.33;12.90;;;16.80;99.90;;;;;;5062473;28;20229;-78
2021/07/24 04:19:09;;;;;;;15.33;13.13;;;16.90;99.90;;;;;;5067405;28;20389;-79
2021/07/24 04:21:35;;;;;;;15.80;14.20;;;17.10;99.90;;;;;;5067376;28;20695;-79
2021/07/24 04:24:00;;;;;;;14.63;13.13;;;16.90;99.90;;;;;;5064068;28;20213;-79
2021/07/24 04:26:26;;;;;;;13.50;12.27;;;17.20;99.90;;;;;;5064310;28;20531;-79
2021/07/24 04:28:52;;;;;;;14.17;12.77;;;17.00;99.90;;;;;;5062232;28;20184;-79
2021/07/24 04:31:18;;;;;;;14.93;13.40;;;17.50;99.90;;;;;;5067311;28;20184;-79
2021/07/24 04:33:44;;;;;;;15.33;13.13;;;17.10;99.90;;;;;;5065406;28;20464;-79
2021/07/24 04:36:13;;;;;;;14.07;12.77;;;17.40;99.90;;;;;;5063772;28;20693;-80
2021/07/24 04:38:39;;;;;;;14.10;12.80;;;17.20;99.90;;;;;;5062205;28;20981;-79
2021/07/24 04:41:05;;;;;;;13.90;12.60;;;17.60;99.90;;;;;;5063674;28;20429;-79
2021/07/24 04:43:30;;;;;;;14.10;12.67;;;17.40;99.90;;;;;;5063890;28;20564;-79
2021/07/24 04:45:56;;;;;;;14.97;12.40;;;17.40;99.90;;;;;;5067046;28;20222;-79
2021/07/24 04:48:21;;;;;;;14.20;12.70;;;17.40;99.90;;;;;;5067144;28;20175;-80
2021/07/24 04:50:53;;;;;;;14.67;13.27;;;17.70;99.90;;;;;;5061957;28;20211;-79
2021/07/24 04:53:20;;;;;;;13.40;12.10;;;17.40;99.90;;;;;;5063482;28;20570;-79
2021/07/24 04:55:46;;;;;;;12.33;11.13;;;17.80;99.90;;;;;;5066864;28;20468;-79
2021/07/24 04:58:13;;;;;;;14.30;12.87;;;17.50;99.90;;;;;;5066878;28;20417;-79
2021/07/24 05:00:41;;;;;;;14.37;12.97;;;17.60;99.90;;;;;;5063361;28;20424;-79
2021/07/24 05:03:07;;;;;;;14.23;12.93;;;17.70;99.90;;;;;;5061715;28;20470;-80
2021/07/24 05:05:35;;;;;;;22.90;13.27;;;17.40;99.90;;;;;;5065198;28;20425;-80
2021/07/24 05:08:01;;;;;;;14.00;12.70;;;17.70;99.90;;;;;;5066637;28;20190;-79
2021/07/24 05:10:27;;;;;;;13.70;12.37;;;17.60;99.90;;;;;;5066889;28;20444;-79
2021/07/24 05:12:52;;;;;;;13.27;12.00;;;17.60;99.90;;;;;;5061398;28;20449;-77
2021/07/24 05:15:18;;;;;;;14.17;12.67;;;17.70;99.90;;;;;;5063191;28;20599;-79
2021/07/24 05:17:44;;;;;;;13.10;11.80;;;17.80;99.90;;;;;;5064868;28;20194;-78
2021/07/24 05:20:10;;;;;;;14.60;12.27;;;18.00;99.90;;;;;;5066485;28;20177;-79
2021/07/24 05:22:35;;;;;;;13.60;11.43;;;18.20;99.90;;;;;;5062872;28;20704;-78
2021/07/24 05:25:01;;;;;;;14.63;13.23;;;18.30;99.90;;;;;;5060916;28;20176;-79
2021/07/24 05:27:26;;;;;;;13.23;12.00;;;18.60;99.90;;;;;;5062011;28;20174;-78
2021/07/24 05:29:52;;;;;;;14.20;12.80;;;18.40;99.90;;;;;;5061024;28;20199;-80
2021/07/24 05:32:17;;;;;;;13.73;12.43;;;18.90;99.90;;;;;;5060950;28;20226;-79
2021/07/24 05:34:43;;;;;;;13.00;11.80;;;19.30;99.90;;;;;;5062898;28;20531;-79
2021/07/24 05:37:08;;;;;;;13.20;11.80;;;19.60;99.90;;;;;;5066122;28;20707;-78
2021/07/24 05:39:34;;;;;;;14.17;12.67;;;20.30;99.90;;;;;;5066328;28;20558;-78
2021/07/24 05:41:59;;;;;;;14.43;11.60;;;20.40;99.90;;;;;;5062304;28;20209;-78
2021/07/24 05:44:25;;;;;;;13.13;11.83;;;20.60;99.90;;;;;;5062669;28;20179;-78
2021/07/24 05:46:50;;;;;;;12.27;11.17;;;21.10;99.90;;;;;;5062319;28;20185;-79
2021/07/24 05:49:16;;;;;;;13.60;12.27;;;21.20;99.90;;;;;;5065798;28;20702;-78
2021/07/24 05:51:41;;;;;;;13.43;12.17;;;21.20;99.90;;;;;;5063886;28;20545;-79
2021/07/24 05:54:07;;;;;;;13.20;11.90;;;21.70;99.90;;;;;;5062534;28;20248;-78
2021/07/24 05:56:37;;;;;;;13.13;12.00;;;21.90;99.90;;;;;;5060824;28;20273;-78
2021/07/24 05:59:03;;;;;;;12.17;10.97;;;22.00;98.80;;;;;;5065599;28;20432;-78
2021/07/24 06:01:29;;;;;;;12.43;11.23;;;21.90;98.60;;;;;;5065626;28;20422;-78
2021/07/24 06:03:55;;;;;;;12.20;11.00;;;22.00;99.30;;;;;;5062043;28;20435;-78
2021/07/24 06:06:20;;;;;;;12.13;11.07;;;21.50;99.80;;;;;;5060293;28;20205;-78
2021/07/24 06:08:46;;;;;;;13.20;11.80;;;21.50;99.90;;;;;;5065538;28;20916;-79
2021/07/24 06:11:11;;;;;;;13.13;11.83;;;20.90;99.90;;;;;;5065458;28;20182;-78
2021/07/24 06:13:37;;;;;;;12.77;11.63;;;20.80;99.90;;;;;;5062825;28;20185;-78
2021/07/24 06:16:03;;;;;;;13.20;12.00;;;20.70;99.90;;;;;;5062373;28;20181;-78
2021/07/24 06:18:28;;;;;;;12.47;11.20;;;20.40;99.90;;;;;;5061972;28;20712;-78
2021/07/24 06:20:54;;;;;;;12.40;11.23;;;20.60;99.90;;;;;;5065428;28;20688;-78
2021/07/24 06:23:20;;;;;;;13.13;12.00;;;20.40;99.90;;;;;;5065093;28;20237;-78
2021/07/24 06:25:46;;;;;;;12.83;11.50;;;20.80;99.90;;;;;;5060065;28;20182;-78
2021/07/24 06:28:12;;;;;;;11.90;10.80;;;20.90;99.90;;;;;;5063311;28;20597;-78
2021/07/24 06:30:38;;;;;;;12.67;11.57;;;21.10;99.90;;;;;;5063264;28;20502;-78
2021/07/24 06:33:04;;;;;;;12.80;11.50;;;20.90;99.90;;;;;;5065031;28;20447;-78
2021/07/24 06:35:30;;;;;;;13.53;12.23;;;21.20;99.90;;;;;;5061672;28;20468;-78
2021/07/24 06:37:56;;;;;;;11.87;10.77;;;21.30;99.90;;;;;;5061085;28;20432;-78
2021/07/24 06:40:22;;;;;;;12.93;11.63;;;21.70;99.90;;;;;;5064873;28;20425;-78
2021/07/24 06:42:47;;;;;;;14.23;12.90;;;21.70;99.90;;;;;;5063574;28;20226;-78
2021/07/24 06:45:13;;;;;;;12.37;11.27;;;21.90;99.90;;;;;;5061569;28;20252;-78
2021/07/24 06:47:38;;;;;;;12.87;11.77;;;21.90;99.40;;;;;;5061743;28;20535;-78
2021/07/24 06:50:05;;;;;;;13.40;12.20;;;22.00;99.30;;;;;;5064788;28;20233;-78
2021/07/24 06:52:30;;;;;;;12.50;11.30;;;22.20;99.50;;;;;;5064852;28;20188;-78
2021/07/24 06:54:56;;;;;;;13.57;12.13;;;22.20;99.40;;;;;;5059981;28;20779;-78
2021/07/24 06:57:21;;;;;;;12.67;11.47;;;22.50;99.40;;;;;;5059800;28;20218;-78
2021/07/24 06:59:47;;;;;;;12.90;11.70;;;22.90;99.00;;;;;;5064955;28;20186;-78
2021/07/24 07:02:12;;;;;;;13.53;12.13;;;22.70;98.70;;;;;;5065056;28;20657;-78
2021/07/24 07:04:39;;;;;;;12.50;11.30;;;23.00;98.80;;;;;;5061367;28;20189;-78
2021/07/24 07:07:05;;;;;;;14.13;12.83;;;22.80;98.50;;;;;;5061285;28;20174;-78
2021/07/24 07:09:31;;;;;;;13.50;12.10;;;22.50;98.80;;;;;;5061186;28;20822;-77
2021/07/24 07:11:57;;;;;;;13.93;11.90;;;22.60;98.90;;;;;;5064708;28;20643;-78
2021/07/24 07:14:23;;;;;;;12.20;11.10;;;22.60;99.00;;;;;;5063179;28;20264;-78
2021/07/24 07:16:49;;;;;;;13.80;12.50;;;22.80;99.10;;;;;;5059545;28;20457;-78
2021/07/24 07:19:14;;;;;;;13.37;12.03;;;22.60;99.00;;;;;;5062980;28;20475;-79
2021/07/24 07:21:40;;;;;;;14.10;12.80;;;22.80;99.30;;;;;;5062767;28;20712;-78
2021/07/24 07:24:06;;;;;;;14.07;12.77;;;22.80;99.30;;;;;;5062884;28;20182;-78
2021/07/24 07:26:32;;;;;;;12.90;11.77;;;22.90;98.90;;;;;;5061370;28;20188;-79
2021/07/24 07:29:02;;;;;;;13.00;11.70;;;22.50;98.50;;;;;;5062644;28;20528;-78
2021/07/24 07:31:29;;;;;;;14.10;12.60;;;22.60;98.60;;;;;;5064524;28;20959;-79
2021/07/24 07:33:54;;;;;;;13.07;11.90;;;23.10;98.70;;;;;;5062770;28;20434;-78
2021/07/24 07:36:20;;;;;;;13.50;12.20;;;23.20;98.90;;;;;;5059015;28;20468;-78
2021/07/24 07:38:45;;;;;;;13.00;11.70;;;22.80;96.80;;;;;;5059401;28;20704;-80
2021/07/24 07:41:12;;;;;;;13.63;12.30;;;23.20;96.70;;;;;;5064403;28;20184;-82
2021/07/24 07:43:38;;;;;;;13.67;12.37;;;23.40;94.10;;;;;;5062665;28;20221;-77
2021/07/24 07:46:03;;;;;;;14.40;13.07;;;23.10;93.00;;;;;;5062495;28;20428;-77
2021/07/24 07:48:32;;;;;;;13.80;12.37;;;23.00;93.10;;;;;;5061757;28;20172;-78
2021/07/24 07:50:57;;;;;;;14.73;13.20;;;22.90;91.90;;;;;;5062715;28;20626;-78
2021/07/24 07:53:23;;;;;;;13.20;11.90;;;23.10;91.90;;;;;;5063055;28;20530;-78
2021/07/24 07:55:48;;;;;;;15.50;12.80;;;22.70;91.10;;;;;;5066071;28;20177;-78
2021/07/24 07:58:16;;;;;;;13.70;12.40;;;22.80;91.10;;;;;;5067755;28;20179;-78
2021/07/24 08:00:42;;;;;;;14.17;12.77;;;22.80;91.50;;;;;;5064486;28;20207;-78
2021/07/24 08:03:07;;;;;;;13.53;12.13;;;22.80;91.20;;;;;;5063165;28;20468;-77
2021/07/24 08:05:33;;;;;;;13.57;12.27;;;22.60;91.10;;;;;;5064608;28;20617;-77
2021/07/24 08:07:59;;;;;;;14.80;13.30;;;22.30;91.50;;;;;;5066129;28;20185;-77
2021/07/24 08:10:25;;;;;;;14.60;13.20;;;22.30;92.20;;;;;;5067781;28;20610;-77
2021/07/24 08:12:52;;;;;;;13.93;12.63;;;22.10;93.30;;;;;;5064431;28;20420;-76
2021/07/24 08:15:18;;;;;;;15.60;13.63;;;22.20;93.70;;;;;;5062468;28;20425;-79
2021/07/24 08:17:44;;;;;;;15.73;14.23;;;21.90;96.00;;;;;;5062587;28;20846;-82
2021/07/24 08:20:10;;;;;;;17.07;15.37;;;21.60;98.50;;;;;;5067910;28;20475;-80
2021/07/24 08:22:36;;;;;;;14.67;13.20;;;21.20;99.90;;;;;;5067646;28;20478;-79
2021/07/24 08:25:04;;;;;;;16.00;14.50;;;21.10;99.90;;;;;;5062361;28;20412;-77
2021/07/24 08:27:31;;;;;;;15.40;13.80;;;21.10;99.90;;;;;;5064392;28;20969;-77
2021/07/24 08:29:57;;;;;;;14.00;12.53;;;21.10;99.90;;;;;;5064166;28;20431;-77
2021/07/24 08:32:22;;;;;;;17.47;14.67;;;21.30;99.90;;;;;;5067332;28;20443;-78
2021/07/24 08:34:49;;;;;;;16.87;15.20;;;21.70;99.90;;;;;;5065540;28;20278;-77
2021/07/24 08:37:15;;;;;;;16.43;14.10;;;21.80;99.90;;;;;;5062365;28;20705;-83
2021/07/24 08:39:41;;;;;;;15.43;13.83;;;21.90;99.90;;;;;;5061914;28;20427;-77
2021/07/24 08:42:07;;;;;;;14.83;13.40;;;21.80;99.90;;;;;;5067276;28;20433;-78
2021/07/24 08:44:36;;;;;;;17.07;15.47;;;22.20;99.90;;;;;;5067425;28;20669;-78
2021/07/24 08:47:03;;;;;;;14.80;13.33;;;22.80;99.90;;;;;;5063915;28;20420;-81
2021/07/24 08:49:28;;;;;;;15.90;14.30;;;23.20;99.90;;;;;;5063795;28;20418;-82
2021/07/24 08:51:57;;;;;;;16.37;14.87;;;23.60;98.80;;;;;;5062274;28;20424;-80
2021/07/24 08:54:23;;;;;;;14.70;13.30;;;24.30;97.80;;;;;;5067637;28;20840;-83
2021/07/24 08:56:49;;;;;;;14.53;13.13;;;24.60;92.90;;;;;;5065410;28;20646;-81
2021/07/24 08:59:20;;;;;;;14.70;13.33;;;25.10;92.60;;;;;;5063955;28;20188;-84
2021/07/24 09:01:53;;;;;;;14.83;13.47;;;25.60;84.80;;;;;;5061726;28;20563;-82
2021/07/24 09:04:21;;;;;;;15.93;14.37;;;26.10;84.00;;;;;;5063743;28;20451;-84
2021/07/24 09:06:53;;;;;;;14.17;12.67;;;26.70;75.60;;;;;;5065847;28;20934;-83
2021/07/24 09:09:19;;;;;;;14.10;12.70;;;27.50;74.40;;;;;;5067178;28;20454;-84
2021/07/24 09:11:45;;;;;;;13.97;12.70;;;28.40;65.50;;;;;;5062200;28;20667;-82
2021/07/24 09:14:11;;;;;;;13.10;11.90;;;29.10;61.60;;;;;;5061953;28;20427;-82
2021/07/24 09:16:38;;;;;;;15.10;13.80;;;29.40;58.10;;;;;;5063318;28;20786;-81
2021/07/24 09:19:04;;;;;;;14.63;13.23;;;29.80;58.80;;;;;;5066520;28;20216;-80
2021/07/24 09:21:30;;;;;;;14.70;13.23;;;30.30;56.60;;;;;;5066849;28;20481;-82
2021/07/24 09:24:16;;;;;;;14.50;13.10;;;31.20;54.90;;;;;;5061727;28;20416;-83
2021/07/24 09:26:42;;;;;;;12.50;11.40;;;32.80;52.60;;;;;;5061624;28;20173;-82
2021/07/24 09:29:16;;;;;;;13.40;12.17;;;34.20;47.70;;;;;;5047052;28;20840;-80
2021/07/24 09:31:42;;;;;;;13.60;12.30;;;35.20;45.30;;;;;;5064867;28;20375;-78
2021/07/24 09:34:13;;;;;;;14.43;12.97;;;35.80;42.10;;;;;;5066251;28;20427;-80
2021/07/24 09:36:38;;;;;;;16.13;12.97;;;36.70;40.70;;;;;;5062510;28;20513;-79
2021/07/24 09:39:18;;;;;;;13.73;12.47;;;37.40;38.20;;;;;;5046756;28;20825;-80
2021/07/24 09:41:45;;;;;;;11.90;10.80;;;37.80;37.10;;;;;;5064660;28;20237;-81
2021/07/24 09:44:12;;;;;;;12.50;11.50;;;38.20;37.20;;;;;;5065925;28;20906;-81
2021/07/24 09:46:37;;;;;;;12.60;11.50;;;38.60;35.20;;;;;;5061018;28;20482;-80
2021/07/24 09:49:15;;;;;;;12.33;11.30;;;38.80;34.80;;;;;;5064454;28;20424;-80
2021/07/24 09:51:43;;;;;;;11.90;10.90;;;38.90;34.30;;;;;;5064563;28;20780;-82
2021/07/24 09:54:28;;;;;;;13.03;11.97;;;39.30;34.10;;;;;;5064674;28;20419;-84
2021/07/24 09:56:54;;;;;;;12.17;11.30;;;39.80;32.30;;;;;;5060907;28;20931;-82
2021/07/24 09:59:27;;;;;;;12.03;11.03;;;40.20;31.20;;;;;;5064051;28;20507;-81
2021/07/24 10:01:55;;;;;;;12.10;11.10;;;40.10;30.80;;;;;;5065885;28;20471;-76
2021/07/24 10:04:29;;;;;;;10.50;9.60;;;40.10;31.10;;;;;;5065576;28;20502;-75
2021/07/24 10:07:04;;;;;;;11.73;10.83;;;39.80;29.80;;;;;;5060706;28;20797;-77
2021/07/24 10:09:34;;;;;;;11.13;10.13;;;39.50;30.00;;;;;;5062448;28;20909;-79
2021/07/24 10:12:05;;;;;;;10.93;9.83;;;39.50;31.70;;;;;;5064782;28;20921;-82
2021/07/24 10:14:31;;;;;;;11.20;10.20;;;39.50;31.70;;;;;;5065921;28;20432;-80
2021/07/24 10:17:01;;;;;;;9.70;8.90;;;39.50;30.60;;;;;;5060547;28;20424;-78
2021/07/24 10:19:28;;;;;;;9.50;8.70;;;39.80;29.70;;;;;;5060313;28;20463;-79
2021/07/24 10:21:55;;;;;;;11.63;8.70;;;39.60;29.00;;;;;;5065553;28;20460;-79
2021/07/24 10:24:22;;;;;;;8.57;7.87;;;39.60;29.20;;;;;;5065257;28;20507;-80
2021/07/24 10:27:09;;;;;;;9.63;8.73;;;39.80;28.70;;;;;;5062127;28;20424;-80
2021/07/24 10:29:51;;;;;;;9.27;8.43;;;39.30;29.10;;;;;;5061848;28;20412;-79
2021/07/24 10:32:28;;;;;;;9.87;8.97;;;38.90;29.70;;;;;;5065344;28;21457;-77
2021/07/24 10:34:55;;;;;;;9.23;7.80;;;38.60;30.60;;;;;;5063458;28;20909;-75
2021/07/24 10:37:30;;;;;;;8.83;7.97;;;38.90;29.80;;;;;;5062650;28;20424;-79
2021/07/24 10:40:14;;;;;;;9.70;8.90;;;38.70;29.50;;;;;;5060009;28;20914;-77
2021/07/24 10:42:40;;;;;;;8.87;8.17;;;38.10;29.40;;;;;;5063396;28;20558;-78
2021/07/24 10:45:32;;;;;;;8.40;7.67;;;37.40;30.70;;;;;;5065148;28;20507;-79
2021/07/24 10:48:16;;;;;;;8.67;7.87;;;38.00;31.60;;;;;;5061872;28;20186;-79
2021/07/24 10:51:07;;;;;;;7.30;6.60;;;39.00;29.40;;;;;;5060043;28;20423;-82
2021/07/24 10:54:01;;;;;;;7.00;6.40;;;39.00;28.70;;;;;;5057875;28;20453;-80
2021/07/24 10:56:41;;;;;;;8.00;7.20;;;38.60;28.50;;;;;;5064981;28;20503;-78
2021/07/24 10:59:29;;;;;;;7.10;6.60;;;38.10;29.30;;;;;;5064914;28;20453;-78
2021/07/24 11:01:59;;;;;;;7.63;6.73;;;37.70;29.70;;;;;;5061538;28;20535;-78
2021/07/24 11:04:36;;;;;;;7.27;6.57;;;37.20;30.10;;;;;;5061540;28;20499;-80
2021/07/24 11:07:21;;;;;;;7.23;6.70;;;36.70;30.90;;;;;;5061498;28;20917;-78
2021/07/24 11:10:03;;;;;;;8.77;7.90;;;36.50;31.00;;;;;;5064820;28;20419;-77
2021/07/24 11:12:38;;;;;;;7.53;6.90;;;36.30;31.30;;;;;;5064649;28;20423;-75
2021/07/24 11:15:08;;;;;;;9.30;8.50;;;35.90;32.20;;;;;;5061475;28;20454;-78
2021/07/24 11:17:34;;;;;;;8.50;7.70;;;35.30;33.10;;;;;;5061812;28;20485;-77
2021/07/24 11:19:59;;;;;;;8.80;8.00;;;34.50;33.90;;;;;;5059889;28;20423;-77
2021/07/24 11:22:28;;;;;;;8.00;7.27;;;34.00;35.30;;;;;;5063152;28;20621;-76
2021/07/24 11:24:57;;;;;;;9.87;8.80;;;33.40;36.30;;;;;;5068669;28;20224;-80
2021/07/24 11:27:30;;;;;;;8.60;7.80;;;32.80;37.20;;;;;;5068680;28;20416;-75
2021/07/24 11:30:05;;;;;;;7.83;7.23;;;32.10;38.40;;;;;;5063545;28;20416;-77
2021/07/24 11:32:43;;;;;;;8.90;8.20;;;31.40;39.50;;;;;;5065374;28;20451;-76
2021/07/24 11:35:13;;;;;;;8.90;8.10;;;30.80;40.90;;;;;;5065033;28;21042;-77
2021/07/24 11:37:47;;;;;;;8.87;7.80;;;30.30;42.80;;;;;;5066828;28;20419;-77
2021/07/24 11:40:14;;;;;;;8.97;8.03;;;29.70;44.10;;;;;;5068434;28;20924;-76
2021/07/24 11:42:41;;;;;;;9.00;8.20;;;29.40;44.70;;;;;;5066610;28;20829;-76
2021/07/24 11:45:07;;;;;;;9.27;8.37;;;29.00;45.90;;;;;;5064871;28;20438;-76
2021/07/24 11:47:32;;;;;;;9.07;8.27;;;28.90;47.30;;;;;;5064957;28;20412;-77
2021/07/24 11:50:17;;;;;;;8.70;8.00;;;28.90;47.60;;;;;;5068237;28;20452;-77
2021/07/24 11:52:48;;;;;;;9.13;8.23;;;29.10;47.30;;;;;;5066540;28;20181;-79
2021/07/24 11:55:32;;;;;;;8.60;7.80;;;29.40;47.30;;;;;;5063343;28;20419;-76
2021/07/24 11:58:19;;;;;;;12.70;9.63;;;30.00;47.40;;;;;;5063204;28;20435;-76
2021/07/24 12:00:53;;;;;;;8.97;8.10;;;31.30;45.80;;;;;;5062930;28;20426;-76
2021/07/24 12:03:24;;;;;;;8.10;7.40;;;32.20;43.10;;;;;;5063906;28;20566;-81
2021/07/24 12:06:07;;;;;;;8.30;7.60;;;34.10;41.30;;;;;;5066630;28;20481;-77
2021/07/24 12:08:35;;;;;;;8.70;7.80;;;36.30;38.20;;;;;;5068076;28;20412;-79
2021/07/24 12:11:00;;;;;;;9.07;8.20;;;38.40;33.80;;;;;;5064503;28;20416;-78
2021/07/24 12:13:29;;;;;;;8.57;7.83;;;39.20;30.80;;;;;;5064706;28;20427;-79
2021/07/24 12:15:58;;;;;;;9.03;8.33;;;39.50;29.80;;;;;;5065724;28;20566;-79
2021/07/24 12:18:24;;;;;;;8.30;7.60;;;40.00;29.80;;;;;;5070202;28;20446;-81
2021/07/24 12:20:50;;;;;;;9.47;8.67;;;39.80;28.90;;;;;;5066681;28;20419;-79
2021/07/24 12:23:23;;;;;;;10.87;10.07;;;39.30;28.70;;;;;;5064499;28;20555;-80
2021/07/24 12:26:09;;;;;;;9.50;8.70;;;39.00;29.40;;;;;;5064336;28;20185;-78
2021/07/24 12:28:35;;;;;;;8.67;7.93;;;39.20;30.00;;;;;;5067769;28;20420;-80
2021/07/24 12:31:21;;;;;;;9.03;8.27;;;40.50;30.50;;;;;;5066296;28;20902;-80
2021/07/24 12:33:54;;;;;;;8.60;8.00;;;42.00;28.10;;;;;;5062693;28;20223;-80
2021/07/24 12:36:22;;;;;;;8.43;7.70;;;43.30;27.00;;;;;;5071351;28;20507;-78
2021/07/24 12:38:51;;;;;;;9.07;8.30;;;44.20;25.10;;;;;;5065016;28;20548;-78